Time;durP1;ratioP1;P1;durP2;ratioP2;P2;SDS_P1;SDS_P2;PMS_P1;PMS_P2;Temp;Humidity;BMP_temperature;BMP_pressure;BME280_temperature;BME280_humidity;BME280_pressure;Samples;Min_cycle;Max_cycle;Signal;HPM_P1;HPM_P2
2024/01/24 00:01:55;;;;;;;12.10;3.30;;;;;9.90;99113.00;;;;5073197;28;20044;-67
2024/01/24 00:04:22;;;;;;;11.15;2.53;;;;;10.00;99123.00;;;;5073354;28;20127;-67
2024/01/24 00:06:49;;;;;;;10.85;2.63;;;;;10.00;99132.00;;;;5074451;28;20047;-67
2024/01/24 00:09:15;;;;;;;6.68;2.17;;;;;10.00;99126.00;;;;5073070;28;20068;-67
2024/01/24 00:11:42;;;;;;;9.48;2.58;;;;;10.10;99127.00;;;;5074158;28;20510;-67
2024/01/24 00:14:10;;;;;;;6.63;1.92;;;;;10.10;99138.00;;;;5073685;28;20037;-67
2024/01/24 00:16:37;;;;;;;4.80;1.95;;;;;10.10;99115.00;;;;5073038;28;20056;-67
2024/01/24 00:19:03;;;;;;;6.03;1.88;;;;;10.10;99110.00;;;;5074054;28;20040;-67
2024/01/24 00:21:30;;;;;;;9.98;2.20;;;;;10.10;99120.00;;;;5074143;28;20076;-67
2024/01/24 00:23:57;;;;;;;8.68;2.25;;;;;10.10;99108.00;;;;5073525;28;20453;-67
2024/01/24 00:26:23;;;;;;;9.07;2.50;;;;;10.10;99094.00;;;;5073846;28;20056;-67
2024/01/24 00:28:50;;;;;;;4.90;2.22;;;;;10.10;99103.00;;;;5073908;28;20052;-67
2024/01/24 00:31:16;;;;;;;9.27;2.10;;;;;10.10;99110.00;;;;5073968;28;20051;-67
2024/01/24 00:33:43;;;;;;;6.20;2.10;;;;;10.10;99115.00;;;;5073249;28;20051;-67
2024/01/24 00:36:09;;;;;;;6.45;1.60;;;;;10.10;99118.00;;;;5073780;28;20131;-67
2024/01/24 00:38:36;;;;;;;8.15;2.03;;;;;10.10;99108.00;;;;5073706;28;20036;-67
2024/01/24 00:41:03;;;;;;;8.10;2.10;;;;;10.10;99133.00;;;;5073564;28;20052;-67
2024/01/24 00:43:29;;;;;;;10.07;2.13;;;;;10.10;99123.00;;;;5071731;28;20048;-67
2024/01/24 00:45:56;;;;;;;8.43;2.50;;;;;10.10;99120.00;;;;5073502;28;20509;-67
2024/01/24 00:48:22;;;;;;;7.10;2.13;;;;;10.10;99112.00;;;;5073498;28;20427;-67
2024/01/24 00:50:49;;;;;;;13.05;2.40;;;;;10.20;99104.00;;;;5073488;28;20052;-67
2024/01/24 00:53:20;;;;;;;6.30;2.03;;;;;10.20;99106.00;;;;5073501;28;20047;-67
2024/01/24 00:55:47;;;;;;;6.78;2.00;;;;;10.20;99109.00;;;;5054819;28;20056;-67
2024/01/24 00:58:14;;;;;;;6.63;1.90;;;;;10.20;99107.00;;;;5073356;28;20515;-67
2024/01/24 01:00:40;;;;;;;12.35;2.42;;;;;10.20;99114.00;;;;5073103;28;20055;-67
2024/01/24 01:03:08;;;;;;;7.75;1.90;;;;;10.30;99113.00;;;;5072113;28;20383;-67
2024/01/24 01:05:36;;;;;;;7.70;1.98;;;;;10.30;99098.00;;;;5071431;28;20572;-67
2024/01/24 01:08:05;;;;;;;8.05;1.95;;;;;10.30;99117.00;;;;5073110;28;20037;-67
2024/01/24 01:10:31;;;;;;;8.98;2.20;;;;;10.30;99116.00;;;;5073005;28;20044;-67
2024/01/24 01:12:58;;;;;;;6.72;2.70;;;;;10.30;99111.00;;;;5073175;28;20563;-67
2024/01/24 01:15:24;;;;;;;8.45;2.47;;;;;10.30;99114.00;;;;5053636;28;20056;-67
2024/01/24 01:17:51;;;;;;;8.73;2.45;;;;;10.30;99100.00;;;;5072909;28;20397;-67
2024/01/24 01:20:21;;;;;;;6.43;2.58;;;;;10.30;99098.00;;;;5072839;28;20074;-67
2024/01/24 01:22:47;;;;;;;6.40;1.83;;;;;10.30;99091.00;;;;5072929;28;20412;-67
2024/01/24 01:25:14;;;;;;;8.43;2.05;;;;;10.30;99088.00;;;;5072164;28;20486;-67
2024/01/24 01:27:40;;;;;;;8.65;2.28;;;;;10.30;99098.00;;;;5072540;28;20048;-67
2024/01/24 01:30:07;;;;;;;10.15;2.40;;;;;10.30;99092.00;;;;5072563;28;20048;-67
2024/01/24 01:32:34;;;;;;;7.95;2.00;;;;;10.30;99072.00;;;;5071517;28;20047;-67
2024/01/24 01:35:01;;;;;;;7.38;1.95;;;;;10.30;99059.00;;;;5072026;28;20127;-67
2024/01/24 01:37:27;;;;;;;8.57;2.10;;;;;10.30;99059.00;;;;5072582;28;20127;-67
2024/01/24 01:39:54;;;;;;;7.88;2.17;;;;;10.40;99065.00;;;;5072362;28;20076;-67
2024/01/24 01:42:21;;;;;;;7.63;1.88;;;;;10.40;99041.00;;;;5072347;28;20486;-67
2024/01/24 01:44:48;;;;;;;7.15;2.28;;;;;10.40;99066.00;;;;5070631;28;20075;-67
2024/01/24 01:47:15;;;;;;;6.43;1.98;;;;;10.40;99064.00;;;;5072475;28;20119;-67
2024/01/24 01:49:45;;;;;;;5.80;1.90;;;;;10.40;99069.00;;;;5072321;28;20067;-67
2024/01/24 01:52:13;;;;;;;7.30;2.28;;;;;10.40;99059.00;;;;5072376;28;20226;-67
2024/01/24 01:54:41;;;;;;;8.32;2.05;;;;;10.40;99069.00;;;;5071824;28;20041;-66
2024/01/24 01:57:11;;;;;;;10.65;2.20;;;;;10.40;99058.00;;;;5072087;28;20044;-66
2024/01/24 01:59:40;;;;;;;6.95;1.85;;;;;10.40;99063.00;;;;5072078;28;20063;-66
2024/01/24 02:02:10;;;;;;;7.72;1.85;;;;;10.50;99063.00;;;;5072159;28;20510;-66
2024/01/24 02:04:37;;;;;;;8.32;2.13;;;;;10.50;99076.00;;;;5070325;28;20040;-66
2024/01/24 02:07:03;;;;;;;5.18;2.13;;;;;10.50;99085.00;;;;5072120;28;20050;-66
2024/01/24 02:09:30;;;;;;;5.13;2.00;;;;;10.50;99065.00;;;;5071993;28;20059;-66
2024/01/24 02:11:57;;;;;;;4.30;1.95;;;;;10.50;99054.00;;;;5070719;28;20052;-66
2024/01/24 02:14:23;;;;;;;7.97;2.05;;;;;10.50;99056.00;;;;5071495;28;20055;-66
2024/01/24 02:16:50;;;;;;;4.18;1.85;;;;;10.50;99047.00;;;;5072079;28;20135;-66
2024/01/24 02:19:17;;;;;;;6.90;1.88;;;;;10.40;99044.00;;;;5071954;28;20071;-65
2024/01/24 02:21:43;;;;;;;7.35;1.85;;;;;10.40;99034.00;;;;5072035;28;20048;-65
2024/01/24 02:24:11;;;;;;;6.10;1.77;;;;;10.40;99041.00;;;;5070254;28;20051;-65
2024/01/24 02:26:38;;;;;;;8.23;1.50;;;;;10.40;99036.00;;;;5071638;28;20048;-65
2024/01/24 02:29:06;;;;;;;7.00;2.22;;;;;10.40;99044.00;;;;5071891;28;20473;-65
2024/01/24 02:31:32;;;;;;;9.13;1.73;;;;;10.40;99042.00;;;;5071914;28;20516;-65
2024/01/24 02:33:59;;;;;;;8.88;2.20;;;;;10.40;99048.00;;;;5071338;28;20040;-67
2024/01/24 02:36:26;;;;;;;3.03;1.60;;;;;10.40;99034.00;;;;5070758;28;20037;-66
2024/01/24 02:38:52;;;;;;;4.53;1.60;;;;;10.40;99053.00;;;;5070486;28;20040;-65
2024/01/24 02:41:23;;;;;;;6.50;1.88;;;;;10.40;99048.00;;;;5071821;28;20087;-65
2024/01/24 02:43:49;;;;;;;5.10;2.08;;;;;10.40;99061.00;;;;5070307;28;20405;-66
2024/01/24 02:46:16;;;;;;;3.47;1.52;;;;;10.40;99039.00;;;;5071793;28;20050;-66
2024/01/24 02:48:43;;;;;;;5.13;1.85;;;;;10.40;99056.00;;;;5070393;28;20037;-66
2024/01/24 02:51:09;;;;;;;8.20;1.70;;;;;10.30;99058.00;;;;5071730;28;20455;-65
2024/01/24 02:53:36;;;;;;;4.18;1.58;;;;;10.30;99058.00;;;;5071107;28;20041;-66
2024/01/24 02:56:03;;;;;;;3.05;1.63;;;;;10.30;99062.00;;;;5071528;28;20049;-66
2024/01/24 02:58:29;;;;;;;4.00;1.60;;;;;10.30;99049.00;;;;5070328;28;20055;-66
2024/01/24 03:00:56;;;;;;;3.67;1.50;;;;;10.30;99055.00;;;;5071610;28;20036;-66
2024/01/24 03:03:22;;;;;;;4.57;1.33;;;;;10.30;99063.00;;;;5071551;28;20049;-66
2024/01/24 03:05:49;;;;;;;6.00;1.88;;;;;10.30;99052.00;;;;5071439;28;20051;-66
2024/01/24 03:08:16;;;;;;;5.50;2.20;;;;;10.30;99058.00;;;;5072018;28;20041;-66
2024/01/24 03:10:42;;;;;;;5.95;1.67;;;;;10.30;99055.00;;;;5071547;28;20041;-66
2024/01/24 03:13:09;;;;;;;5.10;1.85;;;;;10.30;99035.00;;;;5070302;28;20123;-67
2024/01/24 03:15:35;;;;;;;3.00;1.30;;;;;10.30;99034.00;;;;5071172;28;20523;-67
2024/01/24 03:18:02;;;;;;;5.00;1.50;;;;;10.30;99041.00;;;;5070389;28;20128;-68
2024/01/24 03:20:29;;;;;;;3.70;1.70;;;;;10.30;99062.00;;;;5071382;28;20080;-67
2024/01/24 03:22:56;;;;;;;4.65;1.65;;;;;10.30;99039.00;;;;5071519;28;20063;-67
2024/01/24 03:25:22;;;;;;;5.43;1.40;;;;;10.30;99044.00;;;;5070771;28;20455;-67
2024/01/24 03:27:49;;;;;;;5.60;1.95;;;;;10.30;99036.00;;;;5071227;28;20049;-67
2024/01/24 03:30:16;;;;;;;8.65;1.90;;;;;10.40;99032.00;;;;5071378;28;20041;-67
2024/01/24 03:32:42;;;;;;;4.10;1.42;;;;;10.40;99032.00;;;;5071322;28;20049;-67
2024/01/24 03:35:10;;;;;;;1.98;1.30;;;;;10.40;99016.00;;;;5070938;28;20115;-67
2024/01/24 03:37:37;;;;;;;4.65;1.67;;;;;10.40;99031.00;;;;5071419;28;20494;-67
2024/01/24 03:40:05;;;;;;;3.42;1.30;;;;;10.40;99043.00;;;;5073412;28;20079;-67
2024/01/24 03:42:32;;;;;;;1.50;1.10;;;;;10.40;99054.00;;;;5074846;28;20045;-67
2024/01/24 03:44:59;;;;;;;6.05;1.55;;;;;10.40;99047.00;;;;5074171;28;20045;-67
2024/01/24 03:47:25;;;;;;;2.67;1.33;;;;;10.50;99048.00;;;;5074733;28;20045;-67
2024/01/24 03:49:52;;;;;;;1.63;1.27;;;;;10.50;99056.00;;;;5074684;28;20032;-67
2024/01/24 03:52:19;;;;;;;2.95;1.40;;;;;10.50;99038.00;;;;5074680;28;20040;-67
2024/01/24 03:54:45;;;;;;;3.38;1.48;;;;;10.50;99048.00;;;;5074103;28;20484;-67
2024/01/24 03:57:12;;;;;;;3.40;1.40;;;;;10.60;99043.00;;;;5074367;28;20040;-67
2024/01/24 03:59:38;;;;;;;3.33;0.90;;;;;10.60;99040.00;;;;5074432;28;20048;-67
2024/01/24 04:02:05;;;;;;;1.67;1.17;;;;;10.60;99029.00;;;;5074518;28;20088;-67
2024/01/24 04:04:34;;;;;;;3.58;1.42;;;;;10.60;99031.00;;;;5074064;28;20049;-67
2024/01/24 04:07:01;;;;;;;1.45;1.10;;;;;10.60;99032.00;;;;5074312;28;20036;-68
2024/01/24 04:09:28;;;;;;;1.17;0.93;;;;;10.60;99047.00;;;;5074188;28;20037;-67
2024/01/24 04:11:54;;;;;;;1.63;0.85;;;;;10.70;99026.00;;;;5073289;28;20147;-67
2024/01/24 04:14:22;;;;;;;3.75;1.08;;;;;10.70;99026.00;;;;5074006;28;20562;-67
2024/01/24 04:16:48;;;;;;;1.40;0.90;;;;;10.70;99007.00;;;;5074485;28;20536;-67
2024/01/24 04:19:15;;;;;;;2.63;0.90;;;;;10.70;99013.00;;;;5076167;28;20401;-66
2024/01/24 04:21:45;;;;;;;1.25;1.15;;;;;10.80;99006.00;;;;5075017;28;20127;-66
2024/01/24 04:24:12;;;;;;;1.42;0.80;;;;;10.80;98993.00;;;;5075504;28;20041;-66
2024/01/24 04:26:39;;;;;;;2.50;0.80;;;;;10.80;98998.00;;;;5076115;28;20072;-66
2024/01/24 04:29:06;;;;;;;1.40;0.90;;;;;10.80;98990.00;;;;5076044;28;20062;-66
2024/01/24 04:31:37;;;;;;;1.73;1.08;;;;;10.80;98988.00;;;;5076239;28;20072;-66
2024/01/24 04:34:03;;;;;;;2.45;1.05;;;;;10.90;98973.00;;;;5075420;28;20436;-66
2024/01/24 04:36:30;;;;;;;1.45;0.80;;;;;10.90;98975.00;;;;5074997;28;20128;-66
2024/01/24 04:38:57;;;;;;;1.17;0.73;;;;;10.90;98982.00;;;;5073794;28;20076;-66
2024/01/24 04:41:24;;;;;;;2.33;0.88;;;;;11.00;98982.00;;;;5074159;28;20055;-66
2024/01/24 04:43:51;;;;;;;1.15;0.80;;;;;11.00;98984.00;;;;5073567;28;20049;-67
2024/01/24 04:46:19;;;;;;;1.23;1.00;;;;;11.00;98978.00;;;;5074284;28;20491;-66
2024/01/24 04:48:45;;;;;;;1.50;0.80;;;;;11.00;98991.00;;;;5072752;28;20110;-66
2024/01/24 04:51:12;;;;;;;1.13;0.80;;;;;11.10;98983.00;;;;5073804;28;20105;-67
2024/01/24 04:53:39;;;;;;;1.10;1.00;;;;;11.00;98992.00;;;;5071868;28;20054;-66
2024/01/24 04:56:06;;;;;;;1.33;1.00;;;;;11.00;98992.00;;;;5074064;28;20051;-66
2024/01/24 04:58:33;;;;;;;3.13;0.85;;;;;11.00;98980.00;;;;5074462;28;20444;-66
2024/01/24 05:01:00;;;;;;;1.02;0.93;;;;;11.00;99013.00;;;;5073943;28;20052;-65
2024/01/24 05:03:27;;;;;;;2.60;0.70;;;;;11.00;99003.00;;;;5072949;28;20053;-66
2024/01/24 05:05:54;;;;;;;0.85;0.70;;;;;11.00;99017.00;;;;5073447;28;20430;-66
2024/01/24 05:08:32;;;;;;;0.88;0.70;;;;;11.00;99039.00;;;;5073676;28;20106;-66
2024/01/24 05:10:59;;;;;;;3.17;0.70;;;;;11.00;99021.00;;;;5071947;28;20064;-66
2024/01/24 05:13:26;;;;;;;0.77;0.60;;;;;11.00;99009.00;;;;5072635;28;20048;-66
2024/01/24 05:15:52;;;;;;;0.70;0.70;;;;;11.00;99025.00;;;;5073290;28;20409;-66
2024/01/24 05:18:19;;;;;;;0.70;0.70;;;;;11.10;99031.00;;;;5073346;28;20127;-66
2024/01/24 05:20:47;;;;;;;1.17;0.90;;;;;11.10;99014.00;;;;5073052;28;20482;-66
2024/01/24 05:23:14;;;;;;;0.85;0.85;;;;;11.10;99001.00;;;;5073118;28;20040;-67
2024/01/24 05:25:42;;;;;;;0.50;0.50;;;;;11.10;98999.00;;;;5072859;28;20052;-66
2024/01/24 05:28:12;;;;;;;0.47;0.47;;;;;11.20;99001.00;;;;5080284;28;20045;-67
2024/01/24 05:30:38;;;;;;;0.60;0.60;;;;;11.20;98988.00;;;;5084782;28;20095;-67
2024/01/24 05:33:05;;;;;;;0.65;0.60;;;;;11.20;98991.00;;;;5087102;28;20055;-66
2024/01/24 05:35:32;;;;;;;0.73;0.60;;;;;11.30;98989.00;;;;5087741;28;20053;-67
2024/01/24 05:37:59;;;;;;;0.50;0.50;;;;;11.30;98983.00;;;;5089078;28;20513;-67
2024/01/24 05:40:26;;;;;;;0.60;0.60;;;;;11.30;99020.00;;;;5089423;28;20041;-66
2024/01/24 05:42:53;;;;;;;0.50;0.50;;;;;11.40;99022.00;;;;5088556;28;20072;-67
2024/01/24 05:45:20;;;;;;;0.47;0.40;;;;;11.40;99022.00;;;;5085496;28;20040;-67
2024/01/24 05:47:46;;;;;;;0.50;0.50;;;;;11.40;99018.00;;;;5085996;28;20504;-67
2024/01/24 05:50:13;;;;;;;0.50;0.50;;;;;11.50;99020.00;;;;5088427;28;20041;-66
2024/01/24 05:52:41;;;;;;;0.65;0.60;;;;;11.50;99005.00;;;;5088522;28;20070;-66
2024/01/24 05:55:11;;;;;;;0.50;0.50;;;;;11.60;99009.00;;;;5083520;28;20044;-66
2024/01/24 05:57:39;;;;;;;1.20;0.60;;;;;11.60;98993.00;;;;5073163;28;20500;-66
2024/01/24 06:00:08;;;;;;;0.50;0.50;;;;;11.60;98991.00;;;;5073366;28;20059;-66
2024/01/24 06:02:38;;;;;;;0.82;0.60;;;;;11.70;98978.00;;;;5073063;28;20056;-67
2024/01/24 06:05:04;;;;;;;0.55;0.50;;;;;11.70;98988.00;;;;5071268;28;20048;-65
2024/01/24 06:07:32;;;;;;;1.85;0.60;;;;;11.80;98999.00;;;;5073338;28;20052;-66
2024/01/24 06:09:59;;;;;;;0.65;0.50;;;;;11.80;98992.00;;;;5074052;28;20452;-66
2024/01/24 06:12:26;;;;;;;0.40;0.40;;;;;11.80;98992.00;;;;5073709;28;20044;-66
2024/01/24 06:14:55;;;;;;;0.57;0.57;;;;;11.90;98994.00;;;;5072519;28;20628;-66
2024/01/24 06:17:24;;;;;;;0.50;0.50;;;;;11.90;99002.00;;;;5072969;28;20459;-66
2024/01/24 06:19:51;;;;;;;0.55;0.55;;;;;11.90;99011.00;;;;5072395;28;20028;-66
2024/01/24 06:22:18;;;;;;;0.43;0.43;;;;;11.90;99020.00;;;;5071849;28;20064;-66
2024/01/24 06:24:44;;;;;;;0.65;0.65;;;;;11.90;99011.00;;;;5071888;28;20067;-66
2024/01/24 06:27:11;;;;;;;1.55;0.43;;;;;11.90;99003.00;;;;5072420;28;20060;-66
2024/01/24 06:29:38;;;;;;;0.95;0.60;;;;;11.80;99000.00;;;;5072496;28;20051;-66
2024/01/24 06:32:24;;;;;;;0.40;0.40;;;;;11.80;99011.00;;;;5072559;28;20059;-66
2024/01/24 06:34:51;;;;;;;0.50;0.50;;;;;11.90;99005.00;;;;5071778;28;20090;-66
2024/01/24 06:37:17;;;;;;;1.02;0.60;;;;;11.80;99017.00;;;;5072586;28;20049;-66
2024/01/24 06:39:44;;;;;;;0.40;0.40;;;;;11.80;99007.00;;;;5071879;28;20045;-65
2024/01/24 06:42:10;;;;;;;2.80;0.63;;;;;11.90;99006.00;;;;5072041;28;20068;-66
2024/01/24 06:44:37;;;;;;;0.40;0.40;;;;;11.90;99002.00;;;;5070280;28;20670;-66
2024/01/24 06:47:04;;;;;;;1.52;0.60;;;;;11.90;98997.00;;;;5071897;28;20119;-66
2024/01/24 06:49:31;;;;;;;0.55;0.55;;;;;11.90;99001.00;;;;5072094;28;20043;-66
2024/01/24 06:51:58;;;;;;;1.17;0.63;;;;;11.90;98995.00;;;;5071844;28;20037;-66
2024/01/24 06:54:24;;;;;;;0.90;0.65;;;;;12.00;99023.00;;;;5071336;28;20052;-66
2024/01/24 06:56:51;;;;;;;0.50;0.43;;;;;12.00;99044.00;;;;5071992;28;20048;-66
2024/01/24 06:59:18;;;;;;;0.50;0.50;;;;;12.00;99034.00;;;;5071560;28;20056;-66
2024/01/24 07:01:44;;;;;;;0.40;0.40;;;;;12.00;99040.00;;;;5071776;28;20493;-65
2024/01/24 07:04:11;;;;;;;0.50;0.50;;;;;12.00;99041.00;;;;5069834;28;20098;-65
2024/01/24 07:06:38;;;;;;;0.50;0.50;;;;;12.00;99020.00;;;;5071728;28;20049;-67
2024/01/24 07:09:04;;;;;;;0.95;0.60;;;;;12.10;99026.00;;;;5071647;28;20080;-65
2024/01/24 07:11:31;;;;;;;0.50;0.50;;;;;12.10;99035.00;;;;5071709;28;20043;-65
2024/01/24 07:13:58;;;;;;;0.50;0.50;;;;;12.20;99031.00;;;;5073198;28;20044;-65
2024/01/24 07:16:25;;;;;;;0.57;0.57;;;;;12.20;99042.00;;;;5075333;28;20120;-65
2024/01/24 07:18:51;;;;;;;0.40;0.40;;;;;12.20;99042.00;;;;5075174;28;20056;-65
2024/01/24 07:21:18;;;;;;;0.40;0.40;;;;;12.20;99048.00;;;;5075173;28;20041;-65
2024/01/24 07:23:45;;;;;;;1.55;0.47;;;;;12.20;99063.00;;;;5073507;28;20066;-65
2024/01/24 07:26:12;;;;;;;0.60;0.60;;;;;12.30;99062.00;;;;5075067;28;20067;-66
2024/01/24 07:28:39;;;;;;;0.57;0.57;;;;;12.30;99051.00;;;;5075398;28;20048;-66
2024/01/24 07:31:06;;;;;;;2.30;0.50;;;;;12.30;99040.00;;;;5075366;28;20083;-66
2024/01/24 07:33:33;;;;;;;0.50;0.47;;;;;12.40;99054.00;;;;5074698;28;20127;-66
2024/01/24 07:35:59;;;;;;;1.65;0.40;;;;;12.40;99051.00;;;;5075268;28;20036;-66
2024/01/24 07:38:26;;;;;;;0.40;0.40;;;;;12.40;99061.00;;;;5075217;28;20040;-66
2024/01/24 07:40:53;;;;;;;0.50;0.43;;;;;12.40;99062.00;;;;5074890;28;20078;-66
2024/01/24 07:43:21;;;;;;;0.68;0.50;;;;;12.50;99065.00;;;;5074924;28;20561;-66
2024/01/24 07:45:48;;;;;;;0.80;0.60;;;;;12.40;99084.00;;;;5074619;28;20106;-66
2024/01/24 07:48:15;;;;;;;1.50;0.50;;;;;12.50;99095.00;;;;5074867;28;20052;-66
2024/01/24 07:50:42;;;;;;;1.52;0.40;;;;;12.50;99089.00;;;;5074720;28;20127;-66
2024/01/24 07:53:09;;;;;;;0.38;0.38;;;;;12.60;99075.00;;;;5074738;28;20493;-66
2024/01/24 07:55:36;;;;;;;0.43;0.43;;;;;12.70;99099.00;;;;5074078;28;20040;-67
2024/01/24 07:58:21;;;;;;;0.40;0.30;;;;;12.70;99105.00;;;;5074745;28;20048;-66
2024/01/24 08:00:48;;;;;;;2.25;0.40;;;;;12.60;99103.00;;;;5074483;28;20089;-66
2024/01/24 08:03:16;;;;;;;0.47;0.47;;;;;12.60;99111.00;;;;5074540;28;20512;-66
2024/01/24 08:05:43;;;;;;;0.57;0.40;;;;;12.60;99089.00;;;;5073906;28;20044;-66
2024/01/24 08:08:10;;;;;;;0.40;0.40;;;;;12.60;99121.00;;;;5074479;28;20090;-66
2024/01/24 08:10:37;;;;;;;0.43;0.43;;;;;12.60;99095.00;;;;5056512;28;20044;-66
2024/01/24 08:13:04;;;;;;;0.75;0.30;;;;;12.70;99113.00;;;;5074130;28;20056;-65
2024/01/24 08:15:30;;;;;;;1.75;0.40;;;;;12.90;99122.00;;;;5072348;28;20382;-65
2024/01/24 08:17:57;;;;;;;0.30;0.30;;;;;12.90;99129.00;;;;5073015;28;20046;-65
2024/01/24 08:20:25;;;;;;;0.43;0.40;;;;;13.00;99114.00;;;;5074036;28;20678;-65
2024/01/24 08:22:52;;;;;;;0.38;0.38;;;;;13.00;99125.00;;;;5074386;28;20606;-65
2024/01/24 08:25:18;;;;;;;0.50;0.50;;;;;13.10;99135.00;;;;5071779;28;20051;-65
2024/01/24 08:27:45;;;;;;;0.40;0.40;;;;;13.10;99149.00;;;;5074173;28;20045;-65
2024/01/24 08:30:12;;;;;;;0.50;0.50;;;;;13.10;99166.00;;;;5072727;28;20037;-65
2024/01/24 08:32:41;;;;;;;0.60;0.52;;;;;13.10;99153.00;;;;5073951;28;20048;-65
2024/01/24 08:35:08;;;;;;;1.67;0.43;;;;;13.20;99150.00;;;;5073149;28;20132;-65
2024/01/24 08:37:35;;;;;;;0.40;0.40;;;;;13.20;99152.00;;;;5073867;28;20098;-65
2024/01/24 08:40:02;;;;;;;0.57;0.50;;;;;13.20;99149.00;;;;5072547;28;20041;-65
2024/01/24 08:42:29;;;;;;;0.50;0.50;;;;;13.20;99150.00;;;;5072585;28;20132;-65
2024/01/24 08:44:56;;;;;;;3.05;0.70;;;;;13.30;99160.00;;;;5073241;28;20127;-65
2024/01/24 08:47:22;;;;;;;0.50;0.50;;;;;13.40;99170.00;;;;5072361;28;20048;-65
2024/01/24 08:49:50;;;;;;;1.08;0.80;;;;;13.40;99173.00;;;;5073661;28;20123;-65
2024/01/24 08:52:17;;;;;;;1.75;0.90;;;;;13.40;99170.00;;;;5072427;28;20056;-64
2024/01/24 08:54:44;;;;;;;1.33;0.70;;;;;13.50;99186.00;;;;5071766;28;20046;-64
2024/01/24 08:57:11;;;;;;;2.58;0.60;;;;;13.50;99196.00;;;;5072145;28;20452;-64
2024/01/24 08:59:38;;;;;;;1.20;0.57;;;;;13.60;99193.00;;;;5073266;28;20409;-65
2024/01/24 09:02:07;;;;;;;0.40;0.40;;;;;13.60;99187.00;;;;5073180;28;20060;-66
2024/01/24 09:04:36;;;;;;;1.65;0.90;;;;;13.60;99183.00;;;;5072590;28;20040;-65
2024/01/24 09:07:03;;;;;;;1.48;0.80;;;;;13.70;99177.00;;;;5072996;28;20409;-65
2024/01/24 09:09:33;;;;;;;0.80;0.70;;;;;13.70;99190.00;;;;5055312;28;20087;-65
2024/01/24 09:12:00;;;;;;;2.25;1.10;;;;;13.80;99176.00;;;;5073094;28;20037;-65
2024/01/24 09:14:26;;;;;;;1.73;0.70;;;;;13.90;99185.00;;;;5072435;28;20048;-65
2024/01/24 09:16:53;;;;;;;2.40;0.73;;;;;13.90;99184.00;;;;5073119;28;20050;-65
2024/01/24 09:19:21;;;;;;;1.65;0.60;;;;;14.00;99199.00;;;;5072951;28;20048;-65
2024/01/24 09:21:49;;;;;;;1.83;0.73;;;;;14.00;99199.00;;;;5071510;28;20044;-65
2024/01/24 09:24:16;;;;;;;1.42;0.77;;;;;14.00;99210.00;;;;5071157;28;20049;-65
2024/01/24 09:26:42;;;;;;;2.72;0.82;;;;;13.90;99213.00;;;;5071642;28;20044;-65
2024/01/24 09:29:12;;;;;;;0.93;0.52;;;;;13.80;99207.00;;;;5072723;28;20051;-65
2024/01/24 09:31:43;;;;;;;1.90;0.80;;;;;13.80;99198.00;;;;5071524;28;20053;-65
2024/01/24 09:34:13;;;;;;;4.43;0.88;;;;;13.80;99200.00;;;;5070939;28;20489;-65
2024/01/24 09:36:41;;;;;;;2.10;0.80;;;;;13.80;99200.00;;;;5070734;28;20515;-65
2024/01/24 09:39:08;;;;;;;1.48;0.70;;;;;13.80;99208.00;;;;5072673;28;20044;-65
2024/01/24 09:41:40;;;;;;;2.45;0.90;;;;;13.70;99223.00;;;;5072418;28;20036;-65
2024/01/24 09:44:08;;;;;;;2.95;0.80;;;;;13.70;99213.00;;;;5072144;28;20082;-65
2024/01/24 09:46:41;;;;;;;4.63;1.48;;;;;13.80;99236.00;;;;5071459;28;20051;-65
2024/01/24 09:49:10;;;;;;;4.07;1.10;;;;;13.80;99245.00;;;;5072485;28;20044;-65
2024/01/24 09:51:37;;;;;;;6.85;1.58;;;;;13.80;99271.00;;;;5072553;28;20040;-65
2024/01/24 09:54:06;;;;;;;4.18;1.10;;;;;13.90;99285.00;;;;5071822;28;20457;-66
2024/01/24 09:56:37;;;;;;;3.20;0.90;;;;;13.90;99268.00;;;;5072601;28;20140;-66
2024/01/24 09:59:05;;;;;;;4.95;1.20;;;;;14.00;99284.00;;;;5072362;28;20497;-66
2024/01/24 10:01:38;;;;;;;5.10;1.00;;;;;14.00;99257.00;;;;5072237;28;20041;-66
2024/01/24 10:04:06;;;;;;;3.30;0.90;;;;;14.10;99268.00;;;;5071710;28;20382;-66
2024/01/24 10:06:37;;;;;;;4.25;1.10;;;;;14.10;99263.00;;;;5072205;28;20082;-66
2024/01/24 10:09:05;;;;;;;2.90;1.20;;;;;14.10;99270.00;;;;5072396;28;20059;-66
2024/01/24 10:11:34;;;;;;;3.80;1.00;;;;;14.20;99253.00;;;;5072167;28;20498;-66
2024/01/24 10:14:00;;;;;;;3.28;1.02;;;;;14.20;99245.00;;;;5070362;28;20044;-66
2024/01/24 10:16:27;;;;;;;4.22;1.10;;;;;14.40;99248.00;;;;5072219;28;20094;-66
2024/01/24 10:18:57;;;;;;;4.70;1.27;;;;;14.40;99249.00;;;;5054421;28;20048;-66
2024/01/24 10:21:27;;;;;;;7.53;1.10;;;;;14.50;99254.00;;;;5070885;28;20047;-65
2024/01/24 10:23:59;;;;;;;3.72;1.33;;;;;14.60;99262.00;;;;5071478;28;20045;-65
2024/01/24 10:26:26;;;;;;;2.88;1.10;;;;;14.70;99265.00;;;;5071926;28;20040;-66
2024/01/24 10:28:53;;;;;;;5.13;1.45;;;;;14.70;99272.00;;;;5071920;28;20046;-65
2024/01/24 10:31:21;;;;;;;4.57;1.45;;;;;14.70;99267.00;;;;5070806;28;20090;-65
2024/01/24 10:33:48;;;;;;;5.18;1.23;;;;;14.80;99280.00;;;;5071367;28;20086;-65
2024/01/24 10:36:16;;;;;;;4.55;1.60;;;;;14.90;99280.00;;;;5072007;28;20489;-65
2024/01/24 10:38:58;;;;;;;4.22;1.45;;;;;15.00;99268.00;;;;5070884;28;20067;-65
2024/01/24 10:41:29;;;;;;;3.92;1.10;;;;;15.00;99275.00;;;;5070656;28;20048;-65
2024/01/24 10:43:59;;;;;;;5.35;1.20;;;;;15.00;99276.00;;;;5071573;28;20497;-65
2024/01/24 10:46:26;;;;;;;3.80;1.75;;;;;15.00;99265.00;;;;5071949;28;20045;-65
2024/01/24 10:48:53;;;;;;;4.78;1.20;;;;;15.10;99282.00;;;;5075902;28;20494;-65
2024/01/24 10:51:20;;;;;;;3.50;1.33;;;;;15.00;99265.00;;;;5074883;28;20137;-65
2024/01/24 10:53:49;;;;;;;5.03;1.38;;;;;14.90;99285.00;;;;5075235;28;20098;-65
2024/01/24 10:56:17;;;;;;;12.57;2.67;;;;;15.00;99277.00;;;;5074604;28;20094;-65
2024/01/24 10:58:45;;;;;;;3.17;1.45;;;;;14.90;99294.00;;;;5075668;28;20089;-65
2024/01/24 11:01:11;;;;;;;3.35;1.55;;;;;14.90;99286.00;;;;5074570;28;20090;-65
2024/01/24 11:03:39;;;;;;;10.48;5.43;;;;;14.90;99295.00;;;;5057200;28;20045;-65
2024/01/24 11:06:15;;;;;;;7.32;2.28;;;;;15.00;99290.00;;;;5074470;28;20482;-65
2024/01/24 11:08:50;;;;;;;7.35;1.90;;;;;15.00;99289.00;;;;5075681;28;20048;-66
2024/01/24 11:11:20;;;;;;;5.18;1.65;;;;;15.10;99287.00;;;;5075257;28;20052;-66
2024/01/24 11:13:47;;;;;;;4.20;2.00;;;;;15.20;99312.00;;;;5073697;28;20051;-66
2024/01/24 11:16:25;;;;;;;9.35;2.20;;;;;15.20;99309.00;;;;5075335;28;20036;-66
2024/01/24 11:18:56;;;;;;;4.68;1.77;;;;;15.20;99315.00;;;;5075377;28;20078;-66
2024/01/24 11:21:23;;;;;;;11.23;2.20;;;;;15.20;99321.00;;;;5073938;28;20052;-66
2024/01/24 11:23:50;;;;;;;5.88;1.67;;;;;15.30;99315.00;;;;5056974;28;20044;-66
2024/01/24 11:26:16;;;;;;;6.10;1.80;;;;;15.20;99329.00;;;;5074056;28;20044;-66
2024/01/24 11:28:45;;;;;;;8.13;2.30;;;;;15.10;99334.00;;;;5075227;28;20127;-65
2024/01/24 11:31:13;;;;;;;10.07;2.45;;;;;15.20;99339.00;;;;5074107;28;20052;-65
2024/01/24 11:34:09;;;;;;;7.43;2.65;;;;;15.20;99355.00;;;;5073409;28;20052;-66
2024/01/24 11:36:50;;;;;;;9.85;2.42;;;;;15.00;99347.00;;;;5075076;28;20071;-66
2024/01/24 11:39:33;;;;;;;6.75;2.05;;;;;14.90;99339.00;;;;5075244;28;20097;-65
2024/01/24 11:42:21;;;;;;;11.63;1.90;;;;;14.80;99344.00;;;;5074974;28;20494;-65
2024/01/24 11:44:48;;;;;;;8.13;1.83;;;;;14.70;99338.00;;;;5073410;28;20090;-65
2024/01/24 11:47:15;;;;;;;10.20;2.15;;;;;14.60;99355.00;;;;5073841;28;20052;-65
2024/01/24 11:49:50;;;;;;;7.32;2.05;;;;;14.70;99352.00;;;;5073629;28;20140;-65
2024/01/24 11:52:21;;;;;;;9.57;2.22;;;;;14.70;99339.00;;;;5073542;28;20119;-67
2024/01/24 11:54:54;;;;;;;6.78;2.35;;;;;14.70;99353.00;;;;5074127;28;20485;-67
2024/01/24 11:57:21;;;;;;;5.65;2.33;;;;;14.60;99354.00;;;;5073527;28;20052;-68
2024/01/24 11:59:48;;;;;;;9.55;2.35;;;;;14.70;99355.00;;;;5072537;28;20481;-68
2024/01/24 12:02:15;;;;;;;12.32;2.55;;;;;14.80;99365.00;;;;5074556;28;20508;-67
2024/01/24 12:04:42;;;;;;;10.00;2.33;;;;;14.80;99358.00;;;;5073933;28;20515;-67
2024/01/24 12:07:09;;;;;;;7.60;2.40;;;;;14.80;99355.00;;;;5074509;28;20492;-67
2024/01/24 12:09:35;;;;;;;9.05;2.00;;;;;14.70;99357.00;;;;5074371;28;20068;-68
2024/01/24 12:12:02;;;;;;;8.25;2.78;;;;;14.70;99356.00;;;;5074329;28;20041;-68
2024/01/24 12:14:30;;;;;;;8.85;2.20;;;;;14.70;99349.00;;;;5072486;28;20417;-67
2024/01/24 12:16:57;;;;;;;7.88;2.05;;;;;14.70;99344.00;;;;5072926;28;20451;-67
2024/01/24 12:19:25;;;;;;;9.77;2.55;;;;;14.60;99370.00;;;;5074385;28;20488;-68